Time;durP1;ratioP1;P1;durP2;ratioP2;P2;SDS_P1;SDS_P2;PMS_P1;PMS_P2;Temp;Humidity;BMP_temperature;BMP_pressure;BME280_temperature;BME280_humidity;BME280_pressure;Samples;Min_cycle;Max_cycle;Signal;HPM_P1;HPM_P2
2022/08/19 00:00:33;;;;;;;11.40;7.05;;;;;;;20.31;100.00;99857.38;4962978;28;20042;-85
2022/08/19 00:02:58;;;;;;;12.07;7.78;;;;;;;20.30;100.00;99861.13;4997205;28;20037;-85
2022/08/19 00:05:24;;;;;;;15.30;8.38;;;;;;;20.34;100.00;99866.84;4998868;28;20030;-87
2022/08/19 00:07:53;;;;;;;14.27;8.48;;;;;;;20.37;100.00;99842.94;5001706;28;20392;-86
2022/08/19 00:10:20;;;;;;;10.73;8.45;;;;;;;20.39;100.00;99840.81;4997662;28;20034;-86
2022/08/19 00:12:45;;;;;;;13.10;9.05;;;;;;;20.35;100.00;99838.88;4997183;28;20077;-85
2022/08/19 00:15:16;;;;;;;15.00;9.35;;;;;;;20.28;100.00;99840.91;4999165;28;20056;-84
2022/08/19 00:17:45;;;;;;;13.32;10.07;;;;;;;20.33;100.00;99835.59;5002182;28;20058;-82
2022/08/19 00:20:16;;;;;;;13.52;9.98;;;;;;;20.24;100.00;99819.00;5013347;28;20154;-82
2022/08/19 00:22:42;;;;;;;17.33;11.55;;;;;;;20.16;100.00;99815.88;4989786;28;20031;-85
2022/08/19 00:25:08;;;;;;;15.65;11.60;;;;;;;20.11;100.00;99820.13;4979432;28;20038;-85
2022/08/19 00:27:33;;;;;;;17.52;11.80;;;;;;;20.17;100.00;99817.50;4979777;28;20042;-88
2022/08/19 00:29:59;;;;;;;18.83;12.13;;;;;;;20.28;100.00;99820.19;4997794;28;20053;-81
2022/08/19 00:32:25;;;;;;;15.40;11.10;;;;;;;20.30;100.00;99817.25;4998024;28;20031;-84
2022/08/19 00:34:52;;;;;;;19.00;12.50;;;;;;;20.27;100.00;99812.34;4997965;28;21197;-84
2022/08/19 00:37:22;;;;;;;18.67;12.23;;;;;;;20.23;100.00;99805.78;4999173;28;20042;-85
2022/08/19 00:39:49;;;;;;;18.30;12.88;;;;;;;20.31;100.00;99795.47;4980942;28;20081;-82
2022/08/19 00:42:15;;;;;;;25.85;15.15;;;;;;;20.25;100.00;99790.22;4998313;28;20039;-85
2022/08/19 00:44:44;;;;;;;19.08;14.77;;;;;;;20.22;100.00;99790.72;4997731;28;20042;-86
2022/08/19 00:47:11;;;;;;;25.05;15.77;;;;;;;20.20;100.00;99787.44;4999815;28;20038;-86
2022/08/19 00:49:51;;;;;;;21.83;15.93;;;;;;;20.21;100.00;99784.50;4999457;28;20039;-87
2022/08/19 00:52:29;;;;;;;27.27;16.17;;;;;;;20.20;100.00;99788.25;4998009;28;20040;-84
2022/08/19 00:54:56;;;;;;;27.90;16.48;;;;;;;20.25;100.00;99782.16;4996381;28;20038;-85
2022/08/19 00:57:29;;;;;;;26.20;18.10;;;;;;;20.24;100.00;99775.13;4996505;28;20088;-85
2022/08/19 00:59:57;;;;;;;30.48;18.65;;;;;;;20.33;100.00;99789.84;4996075;28;20150;-89
2022/08/19 01:02:23;;;;;;;25.20;19.13;;;;;;;20.24;100.00;99784.03;4996279;28;20391;-86
2022/08/19 01:04:48;;;;;;;28.08;19.05;;;;;;;20.22;100.00;99788.03;4996293;28;20042;-88
2022/08/19 01:07:14;;;;;;;28.63;19.17;;;;;;;20.27;100.00;99796.19;4996154;28;20128;-85
2022/08/19 01:09:39;;;;;;;27.85;19.70;;;;;;;20.20;100.00;99800.88;4995993;28;20034;-84
2022/08/19 01:12:05;;;;;;;27.25;19.77;;;;;;;20.20;100.00;99801.69;4996375;28;20432;-84
2022/08/19 01:14:31;;;;;;;33.33;22.17;;;;;;;20.21;100.00;99808.72;4995600;28;20037;-86
2022/08/19 01:16:59;;;;;;;30.73;21.38;;;;;;;20.26;100.00;99811.50;4996143;28;20034;-85
2022/08/19 01:19:33;;;;;;;31.35;21.77;;;;;;;20.29;100.00;99815.59;4996227;28;20044;-84
2022/08/19 01:22:35;;;;;;;30.00;22.63;;;;;;;20.26;100.00;99816.06;4978792;28;20031;-86
2022/08/19 01:25:01;;;;;;;33.30;22.90;;;;;;;20.24;100.00;99810.09;4996193;28;20045;-85
2022/08/19 01:27:36;;;;;;;32.03;23.42;;;;;;;20.22;100.00;99799.56;4996828;28;20038;-86
2022/08/19 01:30:03;;;;;;;37.10;23.60;;;;;;;20.29;100.00;99799.44;4995917;28;20045;-84
2022/08/19 01:32:30;;;;;;;40.85;26.63;;;;;;;20.27;100.00;99798.88;4996464;28;20031;-86
2022/08/19 01:34:55;;;;;;;39.97;28.77;;;;;;;20.17;100.00;99788.75;4996025;28;20109;-85
2022/08/19 01:37:21;;;;;;;50.05;29.90;;;;;;;20.10;100.00;99786.19;4995641;28;20073;-82
2022/08/19 01:39:48;;;;;;;49.28;33.05;;;;;;;20.09;100.00;99778.34;4995965;28;20031;-85
2022/08/19 01:42:13;;;;;;;47.08;32.30;;;;;;;20.10;100.00;99774.63;4995650;28;20042;-86
2022/08/19 01:44:43;;;;;;;53.58;32.38;;;;;;;20.21;100.00;99770.25;4995622;28;20454;-86
2022/08/19 01:47:11;;;;;;;50.40;31.95;;;;;;;20.20;100.00;99773.97;4995793;28;20066;-83
2022/08/19 01:49:37;;;;;;;47.95;30.25;;;;;;;20.19;100.00;99772.34;4978016;28;20484;-82
2022/08/19 01:52:05;;;;;;;42.80;29.70;;;;;;;20.15;100.00;99771.22;4995401;28;20484;-87
2022/08/19 01:54:31;;;;;;;42.35;29.45;;;;;;;20.16;100.00;99772.81;4995599;28;20121;-84
2022/08/19 01:57:11;;;;;;;45.03;31.17;;;;;;;20.15;100.00;99777.38;4995791;28;20117;-83
2022/08/19 01:59:36;;;;;;;46.90;31.05;;;;;;;20.11;100.00;99755.56;4998574;28;20042;-84
2022/08/19 02:02:06;;;;;;;47.63;31.83;;;;;;;20.11;100.00;99744.78;5007422;28;20499;-83
2022/08/19 02:04:32;;;;;;;46.13;32.42;;;;;;;20.13;100.00;99739.97;5004235;28;20034;-83
2022/08/19 02:06:57;;;;;;;46.40;32.88;;;;;;;20.11;100.00;99741.28;5017558;28;20046;-85
2022/08/19 02:09:23;;;;;;;49.80;33.80;;;;;;;20.11;100.00;99738.59;5018131;28;20573;-83
2022/08/19 02:11:49;;;;;;;53.65;34.85;;;;;;;20.10;100.00;99737.78;5007230;28;20034;-82
2022/08/19 02:14:15;;;;;;;48.45;32.45;;;;;;;20.12;100.00;99754.47;4995319;28;20053;-86
2022/08/19 02:16:40;;;;;;;45.40;32.80;;;;;;;20.28;100.00;99749.41;4995032;28;20061;-81
2022/08/19 02:19:06;;;;;;;46.60;33.10;;;;;;;20.23;100.00;99742.00;4994693;28;20392;-85
2022/08/19 02:21:33;;;;;;;50.10;33.42;;;;;;;20.14;100.00;99727.34;4995055;28;20035;-82
2022/08/19 02:23:59;;;;;;;46.53;32.85;;;;;;;20.13;100.00;99731.91;4995096;28;20022;-85
2022/08/19 02:26:26;;;;;;;50.92;34.22;;;;;;;20.19;100.00;99729.28;4976692;28;20084;-85
2022/08/19 02:28:51;;;;;;;47.70;34.58;;;;;;;20.07;100.00;99743.63;4994813;28;20117;-83
2022/08/19 02:31:20;;;;;;;46.33;34.17;;;;;;;20.04;100.00;99740.63;4994823;28;20154;-86
2022/08/19 02:33:46;;;;;;;44.05;30.90;;;;;;;20.03;100.00;99742.50;4994751;28;20078;-84
2022/08/19 02:36:13;;;;;;;44.97;29.02;;;;;;;19.98;100.00;99753.16;4994787;28;20417;-83
2022/08/19 02:38:40;;;;;;;38.42;28.08;;;;;;;20.06;100.00;99755.44;4994546;28;20042;-82
2022/08/19 02:41:11;;;;;;;43.95;29.60;;;;;;;20.17;100.00;99766.38;4994702;28;20491;-83
2022/08/19 02:43:36;;;;;;;51.90;32.45;;;;;;;20.18;100.00;99757.28;4994668;28;20038;-84
2022/08/19 02:46:11;;;;;;;50.08;31.20;;;;;;;20.18;100.00;99759.97;4994620;28;20037;-82
2022/08/19 02:48:37;;;;;;;29.90;21.85;;;;;;;20.18;100.00;99773.41;4994983;28;20041;-82
2022/08/19 02:51:03;;;;;;;19.80;10.10;;;;;;;19.91;100.00;99754.38;4995087;28;20432;-82
2022/08/19 02:53:28;;;;;;;10.10;3.85;;;;;;;19.40;100.00;99763.28;4994848;28;20117;-84
2022/08/19 02:55:57;;;;;;;4.72;1.40;;;;;;;18.93;100.00;99758.00;4995166;28;20077;-82
2022/08/19 02:58:23;;;;;;;6.05;1.15;;;;;;;18.69;100.00;99751.00;4977433;28;20052;-83
2022/08/19 03:00:53;;;;;;;5.25;1.13;;;;;;;18.64;100.00;99758.09;4994464;28;20038;-84
2022/08/19 03:03:19;;;;;;;7.38;1.35;;;;;;;18.71;100.00;99774.91;4994498;28;20059;-85
2022/08/19 03:05:46;;;;;;;2.83;1.08;;;;;;;18.56;100.00;99773.50;4994391;28;20108;-84
2022/08/19 03:11:34;;;;;;;4.57;1.00;;;;;;;18.30;100.00;99794.53;5005075;28;20037;-84
2022/08/19 03:14:01;;;;;;;5.35;1.10;;;;;;;18.43;100.00;99800.53;5018879;28;20101;-85
2022/08/19 03:16:31;;;;;;;1.63;0.60;;;;;;;18.41;100.00;99807.19;5011970;28;20140;-84
2022/08/19 03:19:00;;;;;;;3.33;0.70;;;;;;;18.55;100.00;99808.63;4993962;28;20097;-85
2022/08/19 03:21:27;;;;;;;3.08;1.02;;;;;;;18.67;100.00;99816.69;4978733;28;20038;-83
2022/08/19 03:23:59;;;;;;;2.67;0.73;;;;;;;18.68;100.00;99834.44;4974609;28;20035;-83
2022/08/19 03:26:25;;;;;;;6.50;1.02;;;;;;;18.89;100.00;99829.31;4975280;28;20085;-84
2022/08/19 03:28:51;;;;;;;4.95;1.65;;;;;;;19.10;100.00;99807.25;4978367;28;20030;-86
2022/08/19 03:31:19;;;;;;;5.00;1.30;;;;;;;19.04;100.00;99805.50;4962777;28;20043;-83
2022/08/19 03:33:45;;;;;;;5.85;1.50;;;;;;;19.01;100.00;99799.78;4979400;28;20431;-86
2022/08/19 03:36:15;;;;;;;5.32;1.60;;;;;;;19.12;100.00;99808.91;4978175;28;20035;-87
2022/08/19 03:38:47;;;;;;;7.30;1.73;;;;;;;19.03;100.00;99844.16;4975205;28;20054;-83
2022/08/19 03:41:19;;;;;;;4.78;1.40;;;;;;;18.85;100.00;99871.13;4975411;28;20373;-85
2022/08/19 03:43:48;;;;;;;4.00;1.47;;;;;;;18.79;100.00;99869.34;4974716;28;20050;-84
2022/08/19 03:46:16;;;;;;;3.30;1.85;;;;;;;18.57;100.00;99861.03;4974632;28;20045;-84
2022/08/19 03:48:43;;;;;;;8.40;3.20;;;;;;;18.55;100.00;99863.13;4957204;28;20043;-85
2022/08/19 03:51:19;;;;;;;10.60;6.45;;;;;;;18.81;100.00;99855.69;4974606;28;20384;-84
2022/08/19 03:53:46;;;;;;;9.23;6.78;;;;;;;18.99;100.00;99859.09;4974293;28;20038;-83
2022/08/19 03:56:12;;;;;;;10.90;6.28;;;;;;;19.07;100.00;99849.88;4974326;28;20072;-83
2022/08/19 03:58:39;;;;;;;10.35;5.72;;;;;;;19.19;100.00;99855.28;4974896;28;20159;-84
2022/08/19 04:01:17;;;;;;;8.07;3.90;;;;;;;19.07;100.00;99880.25;4974714;28;20042;-87
2022/08/19 04:03:44;;;;;;;7.13;4.40;;;;;;;19.23;100.00;99891.34;4958122;28;20090;-83
2022/08/19 04:06:16;;;;;;;7.07;4.03;;;;;;;19.23;100.00;99894.03;4974592;28;20452;-86
2022/08/19 04:08:45;;;;;;;6.57;3.88;;;;;;;19.25;100.00;99895.44;4974583;28;20571;-83
2022/08/19 04:11:15;;;;;;;6.63;3.80;;;;;;;19.25;100.00;99889.25;4974177;28;20035;-84
2022/08/19 04:13:43;;;;;;;8.60;4.32;;;;;;;19.15;100.00;99902.44;4974280;28;20045;-82
2022/08/19 04:16:09;;;;;;;7.32;3.80;;;;;;;19.40;100.00;99914.63;4974189;28;20089;-83
2022/08/19 04:18:37;;;;;;;7.20;4.25;;;;;;;19.32;100.00;99914.16;4973966;28;20081;-82
2022/08/19 04:21:03;;;;;;;6.40;3.90;;;;;;;19.12;100.00;99927.91;4974226;28;20086;-86
2022/08/19 04:23:29;;;;;;;6.78;3.90;;;;;;;19.16;100.00;99930.97;4974387;28;20056;-82
2022/08/19 04:25:56;;;;;;;8.20;4.10;;;;;;;19.16;100.00;99928.28;4974252;28;20027;-85
2022/08/19 04:28:25;;;;;;;7.45;4.32;;;;;;;19.19;100.00;99917.06;4974107;28;20042;-85
2022/08/19 04:30:54;;;;;;;7.35;4.07;;;;;;;19.15;100.00;99922.06;4956939;28;20035;-83
2022/08/19 04:33:23;;;;;;;7.30;3.72;;;;;;;19.06;100.00;99915.38;4974127;28;20043;-83
2022/08/19 04:35:51;;;;;;;7.80;3.95;;;;;;;19.04;100.00;99910.25;4973845;28;20038;-83
2022/08/19 04:38:19;;;;;;;5.50;2.97;;;;;;;19.03;100.00;99903.25;4960365;28;20046;-85
2022/08/19 04:43:37;;;;;;;5.55;2.60;;;;;;;19.10;100.00;99908.50;4973983;28;20069;-82
2022/08/19 04:46:11;;;;;;;3.20;1.77;;;;;;;18.91;100.00;99921.22;4974419;28;20122;-89
2022/08/19 04:48:38;;;;;;;5.07;1.67;;;;;;;18.95;100.00;99943.88;4974468;28;20038;-88
2022/08/19 04:51:09;;;;;;;4.20;1.40;;;;;;;18.84;100.00;99954.59;4977881;28;20109;-87
2022/08/19 04:53:37;;;;;;;4.15;1.15;;;;;;;18.72;100.00;99964.47;4978046;28;20035;-81
2022/08/19 04:56:07;;;;;;;2.60;1.27;;;;;;;18.62;100.00;99964.22;4978353;28;20034;-87
2022/08/19 04:58:33;;;;;;;5.03;1.33;;;;;;;18.53;100.00;99956.47;4978224;28;20043;-83
2022/08/19 05:01:01;;;;;;;6.45;0.90;;;;;;;18.40;100.00;99940.50;4978440;28;20031;-83
2022/08/19 05:03:27;;;;;;;3.05;1.02;;;;;;;18.31;100.00;99922.28;4977725;28;20027;-84
2022/08/19 05:05:56;;;;;;;3.45;0.80;;;;;;;18.46;100.00;99906.59;4960254;28;20089;-84
2022/08/19 05:08:21;;;;;;;3.67;1.05;;;;;;;18.43;100.00;99899.81;4977534;28;20039;-86
2022/08/19 05:10:49;;;;;;;5.75;1.05;;;;;;;18.43;100.00;99907.03;4961822;28;20093;-84
2022/08/19 05:13:17;;;;;;;2.55;1.08;;;;;;;18.43;100.00;99907.84;4962298;28;20404;-85
2022/08/19 05:15:43;;;;;;;2.67;1.10;;;;;;;18.41;100.00;99915.31;4977545;28;20074;-83
2022/08/19 05:23:40;;;;;;;3.20;0.75;;;;;;;18.20;100.00;99917.66;4976759;28;20492;-85
2022/08/19 05:26:05;;;;;;;4.32;1.10;;;;;;;18.23;100.00;99919.91;4977102;28;20027;-91
2022/08/19 05:28:31;;;;;;;2.85;1.17;;;;;;;18.18;100.00;99925.13;4977364;28;20179;-90
2022/08/19 05:30:56;;;;;;;9.02;1.70;;;;;;;18.25;100.00;99923.19;4976920;28;20070;-89
2022/08/19 05:33:24;;;;;;;4.38;1.27;;;;;;;18.25;100.00;99929.38;4977178;28;20039;-81
2022/08/19 05:35:50;;;;;;;4.03;1.20;;;;;;;18.36;100.00;99938.53;4976786;28;20436;-85
2022/08/19 05:38:19;;;;;;;7.22;1.27;;;;;;;18.43;100.00;99933.88;4977046;28;20130;-84
2022/08/19 05:40:46;;;;;;;5.93;1.00;;;;;;;18.54;100.00;99942.00;4976887;28;20033;-84
2022/08/19 05:43:15;;;;;;;3.60;0.77;;;;;;;18.45;100.00;99942.53;4980505;28;20035;-83
2022/08/19 05:45:42;;;;;;;4.90;1.45;;;;;;;18.41;100.00;99952.06;4978438;28;20043;-83
2022/08/19 05:48:10;;;;;;;5.45;1.40;;;;;;;18.40;100.00;99950.41;4978334;28;20464;-83
2022/08/19 05:50:38;;;;;;;3.08;0.93;;;;;;;18.44;100.00;99963.16;4977860;28;20059;-87
2022/08/19 05:53:04;;;;;;;2.95;1.10;;;;;;;18.56;100.00;99965.91;4976612;28;20045;-83
2022/08/19 05:55:31;;;;;;;3.80;0.88;;;;;;;18.41;100.00;99976.22;4976746;28;20506;-85
2022/08/19 05:57:58;;;;;;;6.28;1.17;;;;;;;18.35;100.00;99977.13;4976204;28;20039;-83
2022/08/19 06:00:24;;;;;;;1.38;0.75;;;;;;;18.49;100.00;99968.66;4958285;28;20039;-84
2022/08/19 06:02:50;;;;;;;5.20;0.93;;;;;;;18.41;100.00;99978.91;4978871;28;20035;-82
2022/08/19 06:05:16;;;;;;;2.88;0.80;;;;;;;18.30;100.00;99971.59;4986888;28;20086;-84
2022/08/19 06:07:43;;;;;;;4.97;0.90;;;;;;;18.34;100.00;99970.09;4998349;28;20023;-88
2022/08/19 06:10:11;;;;;;;4.40;1.30;;;;;;;18.40;100.00;99966.50;4984022;28;20051;-86
2022/08/19 06:12:37;;;;;;;4.07;0.95;;;;;;;18.32;100.00;99959.63;4977763;28;20035;-91
2022/08/19 06:15:07;;;;;;;5.30;0.93;;;;;;;18.30;100.00;99959.00;4977207;28;20054;-85
2022/08/19 06:17:52;;;;;;;2.88;1.17;;;;;;;18.14;100.00;99951.56;4959818;28;20046;-83
2022/08/19 06:20:19;;;;;;;3.22;0.68;;;;;;;18.05;100.00;99958.28;4968894;28;20106;-83
2022/08/19 06:22:46;;;;;;;2.25;0.82;;;;;;;18.15;100.00;99952.41;4987006;28;20121;-81
2022/08/19 06:25:14;;;;;;;6.25;0.93;;;;;;;18.14;100.00;99958.81;4999740;28;20011;-81
2022/08/19 06:27:40;;;;;;;4.65;0.90;;;;;;;18.11;100.00;99945.84;5000163;28;20041;-83
2022/08/19 06:30:07;;;;;;;3.60;1.15;;;;;;;18.06;100.00;99943.84;4995558;28;20042;-85
2022/08/19 06:32:32;;;;;;;2.55;0.88;;;;;;;18.10;100.00;99938.84;4976077;28;20485;-83
2022/08/19 06:34:58;;;;;;;3.72;0.80;;;;;;;18.07;100.00;99943.63;4958491;28;20042;-84
2022/08/19 06:37:23;;;;;;;3.50;0.90;;;;;;;18.15;100.00;99947.03;4976523;28;20035;-83
2022/08/19 06:39:49;;;;;;;5.15;0.98;;;;;;;18.18;100.00;99938.53;4977656;28;20035;-88
2022/08/19 06:42:18;;;;;;;3.25;0.70;;;;;;;18.45;100.00;99935.28;4977714;28;20392;-85
2022/08/19 06:44:48;;;;;;;2.22;0.88;;;;;;;18.38;100.00;99941.78;4975577;28;20620;-85
2022/08/19 06:47:18;;;;;;;5.65;0.80;;;;;;;18.73;100.00;99941.94;4975234;28;20038;-82
2022/08/19 06:49:44;;;;;;;5.85;0.73;;;;;;;18.67;100.00;99950.91;4975603;28;20097;-86
2022/08/19 06:52:14;;;;;;;5.00;1.10;;;;;;;18.78;100.00;99956.31;4975245;28;20043;-85
2022/08/19 06:54:41;;;;;;;2.72;0.85;;;;;;;18.76;100.00;99955.72;4957625;28;20399;-87
2022/08/19 06:57:13;;;;;;;3.70;0.85;;;;;;;18.54;100.00;99962.66;4974648;28;20069;-87
2022/08/19 06:59:39;;;;;;;4.13;0.80;;;;;;;18.54;100.00;99949.22;4959346;28;20039;-85
2022/08/19 07:02:06;;;;;;;2.03;0.77;;;;;;;18.64;100.00;99951.38;4957985;28;20049;-85
2022/08/19 07:04:34;;;;;;;2.78;0.57;;;;;;;18.76;100.00;99920.81;4956879;28;20119;-84
2022/08/19 07:07:05;;;;;;;3.67;0.60;;;;;;;18.69;100.00;99912.06;4974250;28;20050;-88
2022/08/19 07:09:31;;;;;;;1.15;0.45;;;;;;;18.64;100.00;99924.53;4975153;28;20057;-91
2022/08/19 07:11:57;;;;;;;2.67;0.65;;;;;;;18.66;100.00;99917.88;4974739;28;20035;-88
2022/08/19 07:14:25;;;;;;;1.90;0.50;;;;;;;18.78;100.00;99916.06;4941496;28;20035;-85
2022/08/19 07:16:54;;;;;;;0.95;0.50;;;;;;;18.90;100.00;99919.56;4970682;28;20034;-87
2022/08/19 07:19:21;;;;;;;2.78;1.02;;;;;;;18.90;100.00;99919.56;4974082;28;20049;-87
2022/08/19 07:21:52;;;;;;;3.78;1.00;;;;;;;19.02;100.00;99920.41;4974208;28;20042;-86
2022/08/19 07:24:19;;;;;;;3.03;1.17;;;;;;;19.07;100.00;99920.53;4974190;28;20039;-87
2022/08/19 07:26:46;;;;;;;2.20;0.63;;;;;;;19.02;100.00;99911.56;4974427;28;20039;-85
2022/08/19 07:29:12;;;;;;;2.40;0.90;;;;;;;19.16;100.00;99923.69;4956471;28;20034;-85
2022/08/19 07:31:37;;;;;;;1.85;0.50;;;;;;;19.26;100.00;99917.72;4974059;28;20073;-86
2022/08/19 07:34:10;;;;;;;1.55;0.50;;;;;;;19.26;100.00;99912.38;4974041;28;20130;-87
2022/08/19 07:36:40;;;;;;;1.90;0.40;;;;;;;19.35;100.00;99919.03;4974202;28;20034;-85
2022/08/19 07:39:22;;;;;;;2.88;0.60;;;;;;;19.37;100.00;99920.44;4973887;28;20496;-87
2022/08/19 07:41:48;;;;;;;2.20;0.60;;;;;;;19.37;100.00;99925.00;4973791;28;20077;-84
2022/08/19 07:44:15;;;;;;;3.05;0.70;;;;;;;19.41;100.00;99921.66;4974727;28;20050;-84
2022/08/19 07:46:45;;;;;;;2.90;0.70;;;;;;;19.63;100.00;99927.22;4976874;28;20511;-90
2022/08/19 07:49:18;;;;;;;5.45;1.08;;;;;;;19.73;100.00;99930.16;4961754;28;20481;-92
2022/08/19 07:52:06;;;;;;;3.03;0.80;;;;;;;19.78;100.00;99924.88;4959595;28;20031;-92
2022/08/19 07:54:34;;;;;;;5.10;0.50;;;;;;;19.90;100.00;99941.81;4957210;28;20103;-91
2022/08/19 07:57:00;;;;;;;2.10;0.30;;;;;;;20.29;100.00;99950.16;4957403;28;20496;-89
2022/08/19 07:59:28;;;;;;;0.93;0.40;;;;;;;20.68;100.00;99949.31;4975180;28;20027;-91
2022/08/19 08:01:54;;;;;;;2.05;0.60;;;;;;;21.18;100.00;99959.38;4957339;28;20165;-89
2022/08/19 08:09:50;;;;;;;1.30;0.40;;;;;;;21.32;100.00;99966.03;4956925;28;20050;-86
2022/08/19 08:12:28;;;;;;;2.78;0.50;;;;;;;21.12;100.00;99961.97;4973772;28;20038;-91
2022/08/19 08:14:55;;;;;;;2.65;0.60;;;;;;;21.30;100.00;99971.69;4972116;28;20039;-85
2022/08/19 08:17:28;;;;;;;2.72;0.60;;;;;;;20.91;100.00;99983.41;4970589;28;20105;-87
2022/08/19 08:19:53;;;;;;;3.80;0.60;;;;;;;20.66;100.00;99989.13;4972799;28;20034;-87
2022/08/19 08:25:16;;;;;;;2.40;0.35;;;;;;;20.46;100.00;99994.94;4973751;28;20031;-83
2022/08/19 08:27:43;;;;;;;1.35;0.52;;;;;;;20.50;100.00;99995.28;4977600;28;20066;-84
2022/08/19 08:30:11;;;;;;;1.25;0.40;;;;;;;20.67;100.00;100012.31;4979583;28;20085;-84
2022/08/19 08:32:38;;;;;;;3.42;0.75;;;;;;;20.92;100.00;100012.78;4961681;28;20035;-85
2022/08/19 08:35:14;;;;;;;1.45;0.73;;;;;;;21.30;100.00;100016.69;4958115;28;20502;-82
2022/08/19 08:37:40;;;;;;;0.95;0.40;;;;;;;21.68;100.00;100024.84;4972699;28;20110;-83
2022/08/19 08:40:18;;;;;;;1.30;0.60;;;;;;;21.76;100.00;100024.47;4976042;28;20039;-83
2022/08/19 08:42:53;;;;;;;2.22;0.40;;;;;;;21.68;100.00;100024.84;4975457;28;20054;-84
2022/08/19 08:45:21;;;;;;;1.23;0.40;;;;;;;21.55;100.00;100030.59;4974887;28;20397;-82
2022/08/19 08:47:50;;;;;;;1.13;0.35;;;;;;;21.72;100.00;100034.09;4979282;28;20034;-83
2022/08/19 08:50:42;;;;;;;11.75;0.52;;;;;;;21.47;100.00;100028.31;4976650;28;20031;-82
2022/08/19 08:53:10;;;;;;;6.65;0.77;;;;;;;21.22;100.00;100025.19;4983949;28;20030;-84
2022/08/19 08:55:36;;;;;;;9.73;0.90;;;;;;;21.02;100.00;100020.22;4979613;28;20034;-82
2022/08/19 08:58:20;;;;;;;5.90;0.60;;;;;;;20.82;100.00;100023.34;4974751;28;20388;-83
2022/08/19 09:00:49;;;;;;;1.30;0.50;;;;;;;20.67;100.00;100023.09;4975545;28;20061;-87
2022/08/19 09:03:15;;;;;;;7.15;0.80;;;;;;;20.63;100.00;100032.69;4975865;28;20035;-86
2022/08/19 09:05:52;;;;;;;1.00;0.60;;;;;;;20.62;100.00;100039.13;4970990;28;20050;-85
2022/08/19 09:09:04;;;;;;;2.75;0.57;;;;;;;20.77;100.00;100039.44;4957457;29;20043;-84
2022/08/19 09:11:48;;;;;;;2.17;0.63;;;;;;;21.11;100.00;100041.16;4950806;28;20850;-83
2022/08/19 09:14:28;;;;;;;4.85;1.05;;;;;;;20.99;100.00;100037.69;4972952;28;20094;-81
2022/08/19 09:16:53;;;;;;;2.70;0.68;;;;;;;20.95;100.00;100038.41;4955202;28;20035;-84
2022/08/19 09:19:19;;;;;;;3.40;0.70;;;;;;;21.01;100.00;100035.56;4975420;28;20029;-82
2022/08/19 09:21:45;;;;;;;7.22;0.65;;;;;;;20.97;100.00;100034.44;4974703;28;20039;-82
2022/08/19 09:24:10;;;;;;;2.53;0.50;;;;;;;20.99;100.00;100031.47;4975437;28;20496;-81
2022/08/19 09:26:36;;;;;;;3.15;0.47;;;;;;;20.95;100.00;100041.09;4981471;28;20045;-84
2022/08/19 09:29:04;;;;;;;0.73;0.30;;;;;;;20.98;100.00;100035.25;4975740;28;20069;-83
2022/08/19 09:31:32;;;;;;;2.33;0.90;;;;;;;21.07;100.00;100047.28;4975698;28;20405;-85
2022/08/19 09:33:58;;;;;;;1.42;0.30;;;;;;;21.14;100.00;100046.06;4975391;28;20496;-83
2022/08/19 09:36:28;;;;;;;2.80;0.52;;;;;;;21.12;100.00;100053.59;4974896;28;20042;-84
2022/08/19 09:38:55;;;;;;;1.35;0.40;;;;;;;21.11;100.00;100046.56;4975383;28;20058;-83
2022/08/19 09:41:22;;;;;;;2.00;0.88;;;;;;;21.01;100.00;100048.25;4957022;28;20042;-83
2022/08/19 09:43:57;;;;;;;1.50;0.63;;;;;;;20.86;100.00;100043.38;4974311;28;20035;-82
2022/08/19 09:46:27;;;;;;;4.20;0.80;;;;;;;20.87;100.00;100055.78;4973998;28;20041;-82
2022/08/19 09:48:53;;;;;;;3.08;0.95;;;;;;;20.95;100.00;100051.88;4969173;28;20404;-89
2022/08/19 09:51:24;;;;;;;3.28;0.80;;;;;;;20.89;100.00;100042.06;4974905;28;20461;-86
2022/08/19 09:53:51;;;;;;;2.40;0.93;;;;;;;20.87;100.00;100038.81;4958146;28;20117;-86
2022/08/19 09:56:19;;;;;;;1.40;0.60;;;;;;;20.85;100.00;100041.72;4975504;28;20058;-84
2022/08/19 09:58:44;;;;;;;2.03;0.90;;;;;;;20.82;100.00;100041.38;4976295;28;20039;-83
2022/08/19 10:01:19;;;;;;;1.50;0.88;;;;;;;20.83;100.00;100037.66;4977287;28;20037;-83
2022/08/19 10:03:49;;;;;;;1.92;1.10;;;;;;;21.01;100.00;100035.56;4976001;28;20038;-84
2022/08/19 10:06:18;;;;;;;2.17;1.15;;;;;;;21.05;100.00;100019.72;4947593;29;20102;-83
2022/08/19 10:08:44;;;;;;;2.40;1.20;;;;;;;21.17;100.00;100033.19;4955534;29;20039;-85
2022/08/19 10:11:15;;;;;;;2.15;1.17;;;;;;;21.12;100.00;100032.03;4955473;29;20023;-86
2022/08/19 10:13:43;;;;;;;2.95;1.38;;;;;;;21.22;100.00;100033.25;4955803;29;20053;-85
2022/08/19 10:16:11;;;;;;;1.85;1.30;;;;;;;21.34;100.00;100031.34;4956242;28;20086;-85
2022/08/19 10:18:38;;;;;;;2.67;1.38;;;;;;;21.55;100.00;100025.19;4961696;28;20041;-85
2022/08/19 10:21:10;;;;;;;3.00;1.63;;;;;;;21.83;100.00;100025.09;4975374;28;20037;-86
2022/08/19 10:23:38;;;;;;;5.82;2.00;;;;;;;21.94;100.00;100023.41;4974912;28;20034;-88
2022/08/19 10:26:05;;;;;;;3.63;1.50;;;;;;;22.03;100.00;100009.25;4975516;28;20039;-86
2022/08/19 10:28:36;;;;;;;8.32;1.80;;;;;;;22.17;100.00;100007.78;4974893;28;20031;-80
2022/08/19 10:31:10;;;;;;;3.10;1.20;;;;;;;22.08;100.00;100009.28;4975327;28;20121;-83
2022/08/19 10:33:38;;;;;;;2.95;1.02;;;;;;;22.05;100.00;100003.56;4977290;28;20110;-83
2022/08/19 10:36:19;;;;;;;3.95;1.40;;;;;;;22.15;100.00;99999.13;4968789;28;20433;-83
2022/08/19 10:38:50;;;;;;;4.65;1.20;;;;;;;22.23;100.00;99994.38;4993926;28;20051;-83
2022/08/19 10:41:18;;;;;;;2.58;1.10;;;;;;;22.13;100.00;99985.09;4997970;28;20043;-85
2022/08/19 10:43:44;;;;;;;5.55;1.05;;;;;;;22.19;100.00;99993.22;4997517;28;20023;-85
2022/08/19 10:46:13;;;;;;;4.68;1.20;;;;;;;22.31;100.00;99996.63;4979938;28;20423;-83
2022/08/19 10:48:39;;;;;;;2.53;1.00;;;;;;;22.81;100.00;99997.22;4975097;28;20038;-87
2022/08/19 10:53:50;;;;;;;3.67;0.90;;;;;;;23.09;100.00;99994.28;4974834;28;20045;-82
2022/08/19 10:59:03;;;;;;;2.92;0.90;;;;;;;23.51;100.00;99988.13;4973885;28;20179;-85
2022/08/19 11:01:30;;;;;;;2.97;1.50;;;;;;;23.68;100.00;99996.91;4974846;28;20070;-82
2022/08/19 11:03:59;;;;;;;2.20;0.75;;;;;;;24.51;100.00;99989.78;4974513;28;20037;-88
2022/08/19 11:06:25;;;;;;;2.85;0.88;;;;;;;25.46;100.00;99991.00;4946368;29;20043;-89
2022/08/19 11:09:07;;;;;;;1.73;0.70;;;;;;;26.06;100.00;99993.66;4978800;28;20039;-81
2022/08/19 11:11:51;;;;;;;2.38;0.60;;;;;;;26.82;100.00;99995.25;4961950;29;20031;-81
2022/08/19 11:17:44;;;;;;;1.00;0.40;;;;;;;27.20;100.00;99987.09;4741455;26;19921;-88
2022/08/19 11:23:20;;;;;;;3.97;0.80;;;;;;;28.11;100.00;99980.81;5352986;23;20038;-84
2022/08/19 11:26:10;;;;;;;3.42;0.73;;;;;;;28.65;98.64;99974.94;5017655;28;20036;-85
2022/08/19 11:29:13;;;;;;;3.88;0.55;;;;;;;28.79;93.69;99977.78;5013972;28;20034;-87
2022/08/19 11:43:33;;;;;;;1.60;0.30;;;;;;;27.96;86.26;99975.50;4579738;26;20038;-85
2022/08/19 12:06:28;;;;;;;1.30;0.30;;;;;;;24.77;99.42;99966.25;5377074;23;20046;-84
2022/08/19 12:49:03;;;;;;;2.03;0.60;;;;;;;24.39;100.00;99927.72;5020151;28;20040;-86
2022/08/19 12:52:00;;;;;;;0.90;0.40;;;;;;;24.21;100.00;99924.69;5021920;28;20030;-85
2022/08/19 12:54:33;;;;;;;1.00;0.43;;;;;;;24.29;100.00;99925.00;4956379;28;20051;-86
2022/08/19 12:57:15;;;;;;;2.53;0.57;;;;;;;24.43;100.00;99922.56;5918563;23;20027;-85
2022/08/19 13:00:10;;;;;;;1.05;0.60;;;;;;;24.50;100.00;99918.53;4985703;28;20077;-85
2022/08/19 13:02:53;;;;;;;4.57;0.45;;;;;;;24.32;100.00;99912.81;4980978;28;20055;-86
2022/08/19 13:25:21;;;;;;;6.78;0.50;;;;;;;24.31;100.00;99898.44;5537865;23;20034;-87
2022/08/19 13:41:21;;;;;;;2.63;0.70;;;;;;;24.60;100.00;99896.06;5051702;23;20120;-90
2022/08/19 13:49:22;;;;;;;1.40;0.35;;;;;;;24.81;100.00;99878.72;5320322;23;20028;-89
2022/08/19 13:52:48;;;;;;;2.83;0.40;;;;;;;24.96;100.00;99892.31;5020760;28;20061;-89